DeLand, FL

10:35 AM EST on February 27, 2015 (GMT -0500)
Ormond Beach Municipal | Change Station
CLOSE
Current Station
Airport
Location: Ormond Beach,
Elevation: 30 ft
Nearby Weather Stations

Elev 30 ft 29.30 °N, 81.11 °W | Updated 45 minutes ago

Overcast
Overcast
52 °F
Feels Like 52 °F
N
12
Wind Variable Wind from North
Gusts 17 mph

Today
High -- | Low -- °F
--% Chance of Precip.
Yesterday
High -- | Low -- °F
Precip. -- in
6:52 AM 6:23 PM
Waxing Gibbous, 69% visible
Pressure 30.24 in
Visibility 7.0 miles
Clouds Overcast 3300 ft
Dew Point 45 °F
Humidity 76%
Rainfall 0.00 in
Snow Depth Not available.
UV 2 out of 12
Pollen 9.70 out of 12
Air Quality Not available.
Flu Activity Not available.
METAR KOMN 271450Z 01010G15KT 7SM OVC033 11/07 A3024

More Conditions Fewer Conditions

Pressure 30.24 in
Visibility 7.0 miles
Clouds Overcast 3300 ft
Dew Point 45 °F
Humidity 76%
Rainfall 0.00 in
Snow Depth Not available.
UV 2 out of 12
Pollen 9.70 out of 12
Air Quality Not available.
Flu Activity Not available.
METAR KOMN 271450Z 01010G15KT 7SM OVC033 11/07 A3024

More Conditions Fewer Conditions

Nowcast | as of 9:28 am EST on February 27, 2015

It will be cool and breezy today...with high temperatures only reaching the low to mid 60s across much of east central Florida and a few degrees warmer along the Treasure Coast. The highest rain chances are expected along the Treasure Coast...with rain chances and cloudiness gradually tapering off to the north and west.

×

10-Day Weather Forecast

Almanac

Astronomy

Feb. 27, 2015 Rise Set
Actual Time
Civil Twilight
Nautical Twilight
Astronomical Twilight
Moon
Length of Visible Light
Length of Day
Tomorrow will be .
, % of the Moon is Illuminated

Today's Extremes

State Highs State Lows

Community

WunderPhotos

Upload Photos

1,800,699 photos uploaded!

WunderBlogs® & News

Nearby

Air Quality

  Air Quality AQ Index Pollutant
Not available.

Snow Depth

Station Depth Elevation

Earthquake Activity

City Distance Mag. Time & Date
Minimum magnitude displayed is 2.5.

Coastal Water Temperatures

Place Temperature

Nearby Weather Stations